Time;durP1;ratioP1;P1;durP2;ratioP2;P2;SDS_P1;SDS_P2;PMS_P1;PMS_P2;Temp;Humidity;BMP_temperature;BMP_pressure;BME280_temperature;BME280_humidity;BME280_pressure;Samples;Min_cycle;Max_cycle;Signal;HPM_P1;HPM_P2
2020/12/11 00:00:23;;;;;;;35.70;19.45;;;0.80;99.90;;;1.33;82.71;99444.34;5017940;28;20496;-82
2020/12/11 00:02:49;;;;;;;33.92;18.55;;;0.70;99.90;;;1.34;82.58;99440.47;5017849;28;20117;-83
2020/12/11 00:05:16;;;;;;;34.58;19.98;;;0.80;99.90;;;1.31;82.84;99433.69;5000058;28;20058;-83
2020/12/11 00:07:42;;;;;;;35.25;18.45;;;0.80;99.90;;;1.44;82.10;99429.94;5017678;28;20033;-79
2020/12/11 00:10:13;;;;;;;38.10;18.85;;;0.80;99.90;;;1.35;82.33;99420.84;5015993;28;20030;-81
2020/12/11 00:12:40;;;;;;;33.53;18.38;;;0.80;99.90;;;1.42;82.40;99415.66;5017773;28;20049;-82
2020/12/11 00:15:09;;;;;;;32.33;17.45;;;0.80;99.90;;;1.47;81.95;99410.00;5000109;28;20084;-82
2020/12/11 00:17:36;;;;;;;36.58;18.55;;;0.80;99.90;;;1.43;82.37;99402.72;4999691;28;20049;-82
2020/12/11 00:20:05;;;;;;;34.63;18.35;;;0.80;99.90;;;1.40;82.32;99397.88;5016087;28;20022;-81
2020/12/11 00:22:32;;;;;;;38.08;19.50;;;0.80;99.90;;;1.38;82.62;99380.91;4995416;28;20030;-81
2020/12/11 00:24:58;;;;;;;35.15;19.10;;;0.80;99.90;;;1.46;82.32;99377.31;4997130;28;20026;-80
2020/12/11 00:27:24;;;;;;;31.75;17.67;;;0.80;99.90;;;1.39;83.09;99363.25;4997562;28;20089;-84
2020/12/11 00:29:50;;;;;;;35.28;19.05;;;0.80;99.90;;;1.41;82.87;99372.78;4996360;28;20028;-82
2020/12/11 00:32:16;;;;;;;31.02;17.52;;;0.80;99.90;;;1.56;82.52;99355.75;4996260;28;20060;-82
2020/12/11 00:34:41;;;;;;;34.50;18.92;;;0.80;99.90;;;1.59;81.95;99366.09;4997503;28;20129;-81
2020/12/11 00:37:08;;;;;;;36.55;19.27;;;0.90;99.90;;;1.52;82.67;99363.03;4996145;28;20029;-83
2020/12/11 00:39:34;;;;;;;34.50;19.15;;;0.90;99.90;;;1.38;83.11;99353.41;4997386;28;20081;-82
2020/12/11 00:42:00;;;;;;;34.63;18.73;;;0.90;99.90;;;1.53;82.80;99341.84;4997452;28;20114;-81
2020/12/11 00:44:28;;;;;;;33.00;18.58;;;0.90;99.90;;;1.64;82.09;99339.53;4996357;28;20057;-83
2020/12/11 00:46:55;;;;;;;31.95;17.58;;;0.90;99.90;;;1.48;82.90;99322.75;4997722;28;20382;-81
2020/12/11 00:49:22;;;;;;;34.83;17.88;;;0.90;99.90;;;1.59;82.63;99318.50;4997465;28;20027;-82
2020/12/11 00:51:55;;;;;;;35.90;18.70;;;1.00;99.90;;;1.65;82.16;99319.13;4995959;28;20031;-82
2020/12/11 00:54:21;;;;;;;42.13;20.40;;;1.00;99.90;;;1.65;82.41;99314.44;4995698;28;20042;-82
2020/12/11 00:56:47;;;;;;;35.33;19.10;;;1.00;99.90;;;1.57;82.57;99312.53;4996154;28;20077;-82
2020/12/11 00:59:13;;;;;;;35.60;19.02;;;1.00;99.90;;;1.54;83.01;99313.97;4979835;28;20105;-78
2020/12/11 01:01:39;;;;;;;36.30;19.25;;;1.00;99.90;;;1.47;82.88;99304.66;4995541;28;20096;-83
2020/12/11 01:04:05;;;;;;;31.25;16.95;;;1.00;99.90;;;1.53;82.66;99301.38;4996909;28;20030;-82
2020/12/11 01:06:31;;;;;;;36.25;17.55;;;1.00;99.90;;;1.56;83.14;99308.16;4995998;28;20034;-82
2020/12/11 01:08:57;;;;;;;33.72;17.73;;;1.10;99.90;;;1.58;82.89;99301.19;4978975;28;20030;-81
2020/12/11 01:11:23;;;;;;;35.83;18.85;;;1.10;99.90;;;1.61;82.65;99285.16;4999127;28;20076;-83
2020/12/11 01:13:49;;;;;;;32.42;17.42;;;1.10;99.90;;;1.50;82.76;99287.47;5016341;28;20497;-84
2020/12/11 01:16:15;;;;;;;37.80;19.33;;;1.10;99.90;;;1.64;83.07;99271.53;4999331;28;20033;-82
2020/12/11 01:18:41;;;;;;;35.53;19.75;;;1.10;99.90;;;1.61;82.83;99274.94;5015601;28;20500;-83
2020/12/11 01:21:06;;;;;;;36.15;18.73;;;1.10;99.90;;;1.64;82.93;99281.75;5016665;28;20102;-81
2020/12/11 01:23:32;;;;;;;37.10;18.75;;;1.20;99.90;;;1.64;82.71;99287.25;5016716;28;20037;-81
2020/12/11 01:25:58;;;;;;;36.63;18.90;;;1.20;99.90;;;1.68;82.84;99283.47;4998993;28;20065;-84
2020/12/11 01:28:24;;;;;;;37.65;19.50;;;1.20;99.90;;;1.65;82.92;99280.59;5016290;28;20044;-80
2020/12/11 01:30:49;;;;;;;36.38;19.02;;;1.30;99.90;;;1.70;82.41;99278.47;4998843;28;20068;-82
2020/12/11 01:33:15;;;;;;;37.78;18.58;;;1.30;99.90;;;1.62;83.25;99273.00;5016085;28;20112;-82
2020/12/11 01:35:43;;;;;;;38.85;19.85;;;1.30;99.90;;;1.75;82.87;99270.00;5016135;28;20095;-82
2020/12/11 01:38:09;;;;;;;36.55;20.60;;;1.30;99.90;;;1.70;83.08;99264.72;4998733;28;20034;-82
2020/12/11 01:40:36;;;;;;;36.67;18.23;;;1.30;99.90;;;1.67;83.35;99253.56;4998418;28;20026;-82
2020/12/11 01:43:03;;;;;;;33.90;18.48;;;1.30;99.90;;;1.73;82.76;99243.97;4998517;28;20094;-83
2020/12/11 01:45:30;;;;;;;33.50;18.35;;;1.30;99.90;;;1.74;82.65;99237.31;5015970;28;20096;-83
2020/12/11 01:47:57;;;;;;;41.13;20.42;;;1.30;99.90;;;1.67;82.70;99246.09;4998877;28;20482;-82
2020/12/11 01:50:24;;;;;;;41.53;21.08;;;1.40;99.90;;;1.69;82.87;99232.00;5015053;28;20022;-82
2020/12/11 01:52:53;;;;;;;36.63;19.23;;;1.40;99.90;;;1.77;82.98;99229.19;5016627;28;20022;-82
2020/12/11 01:55:19;;;;;;;33.90;17.80;;;1.40;99.90;;;1.77;82.66;99222.88;4998241;28;20124;-83
2020/12/11 01:58:01;;;;;;;34.40;18.05;;;1.40;99.90;;;1.74;82.86;99232.59;4997951;28;20630;-81
2020/12/11 02:00:28;;;;;;;32.67;18.05;;;1.50;99.90;;;1.86;82.60;99212.63;4997287;28;20502;-83
2020/12/11 02:03:08;;;;;;;34.60;19.20;;;1.50;99.90;;;1.92;82.21;99209.34;5015107;28;20088;-81
2020/12/11 02:05:34;;;;;;;38.00;20.48;;;1.50;99.90;;;1.90;82.29;99202.53;4997731;28;20037;-83
2020/12/11 02:08:00;;;;;;;39.95;20.42;;;1.50;99.90;;;1.89;82.46;99203.69;4997689;28;20034;-84
2020/12/11 02:10:26;;;;;;;36.90;20.98;;;1.50;99.90;;;2.01;82.07;99195.50;4997350;28;20025;-83
2020/12/11 02:12:53;;;;;;;38.95;21.20;;;1.50;99.90;;;1.96;82.33;99206.69;5015206;28;20374;-81
2020/12/11 02:15:21;;;;;;;37.30;19.08;;;1.50;99.90;;;1.99;82.12;99195.03;4997610;28;20517;-82
2020/12/11 02:17:47;;;;;;;37.47;19.95;;;1.50;99.90;;;1.98;82.04;99176.91;5015108;28;20037;-83
2020/12/11 02:20:13;;;;;;;35.65;19.52;;;1.60;99.90;;;1.90;81.99;99164.81;5013523;28;20033;-83
2020/12/11 02:22:42;;;;;;;41.30;21.42;;;1.60;99.90;;;2.04;82.01;99176.34;4996865;28;20037;-82
2020/12/11 02:25:08;;;;;;;38.72;19.95;;;1.60;99.90;;;2.12;81.94;99161.69;4996475;28;20058;-81
2020/12/11 02:27:37;;;;;;;35.03;20.45;;;1.60;99.90;;;2.07;81.45;99170.16;4997058;28;20033;-81
2020/12/11 02:30:05;;;;;;;35.05;19.40;;;1.60;99.90;;;1.97;82.10;99165.06;4996994;28;20079;-82
2020/12/11 02:32:31;;;;;;;38.40;18.80;;;1.60;99.90;;;2.09;81.73;99161.56;5013522;28;20396;-80
2020/12/11 02:34:57;;;;;;;35.80;19.73;;;1.60;99.90;;;2.13;81.55;99157.00;4995992;28;20482;-81
2020/12/11 02:37:23;;;;;;;36.97;19.92;;;1.70;99.90;;;2.08;81.68;99151.69;5014121;28;20397;-81
2020/12/11 02:39:50;;;;;;;38.28;19.92;;;1.70;99.90;;;2.07;81.60;99161.91;5014285;28;20038;-83
2020/12/11 02:42:15;;;;;;;39.47;21.50;;;1.70;99.90;;;2.19;81.52;99147.38;5013913;28;20045;-82
2020/12/11 02:44:41;;;;;;;36.65;19.45;;;1.70;99.90;;;2.15;81.80;99135.44;4995802;28;20037;-82
2020/12/11 02:47:07;;;;;;;36.75;19.80;;;1.70;99.90;;;2.16;81.72;99130.72;5012961;28;20478;-81
2020/12/11 02:49:33;;;;;;;38.58;21.08;;;1.70;99.90;;;2.15;81.53;99123.63;4996379;28;20513;-81
2020/12/11 02:51:59;;;;;;;35.53;20.00;;;1.70;99.90;;;2.28;81.68;99128.81;5012701;28;20064;-81
2020/12/11 02:54:24;;;;;;;34.30;19.48;;;1.70;99.90;;;2.33;81.01;99120.34;4996091;28;20121;-81
2020/12/11 02:56:50;;;;;;;40.17;19.75;;;1.70;99.90;;;2.41;80.86;99107.63;5014024;28;20548;-80
2020/12/11 02:59:16;;;;;;;32.83;18.77;;;1.70;99.90;;;2.22;81.44;99107.31;5013800;28;20097;-83
2020/12/11 03:01:42;;;;;;;35.65;19.88;;;1.60;99.90;;;2.30;81.52;99103.69;5012638;28;20042;-83
2020/12/11 03:04:08;;;;;;;36.28;19.63;;;1.70;99.90;;;2.34;81.17;99110.94;5013790;28;20037;-82
2020/12/11 03:06:35;;;;;;;38.65;20.35;;;1.70;99.90;;;2.27;81.25;99102.41;4996023;28;20501;-83
2020/12/11 03:09:02;;;;;;;34.60;19.10;;;1.70;99.90;;;2.32;81.19;99091.16;4996089;28;20034;-82
2020/12/11 03:11:28;;;;;;;36.90;20.60;;;1.70;99.90;;;2.40;80.68;99094.97;4996046;28;20551;-80
2020/12/11 03:13:55;;;;;;;36.08;20.42;;;1.70;99.90;;;2.39;80.95;99098.88;4995644;28;20038;-80
2020/12/11 03:16:21;;;;;;;37.65;19.42;;;1.70;99.90;;;2.35;81.01;99093.25;4995988;28;20069;-81
2020/12/11 03:18:49;;;;;;;37.72;20.10;;;1.70;99.90;;;2.36;80.64;99089.34;5013819;28;20037;-80
2020/12/11 03:21:15;;;;;;;38.85;20.23;;;1.70;99.90;;;2.31;81.02;99086.78;4996170;28;20033;-84
2020/12/11 03:23:42;;;;;;;35.33;18.98;;;1.60;99.90;;;2.35;80.56;99092.44;5013391;28;20482;-82
2020/12/11 03:26:08;;;;;;;33.15;17.60;;;1.60;99.90;;;2.22;81.13;99088.03;5013668;28;20421;-83
2020/12/11 03:28:35;;;;;;;36.03;19.85;;;1.60;99.90;;;2.15;81.75;99085.88;4995577;28;20029;-80
2020/12/11 03:31:02;;;;;;;39.60;20.73;;;1.50;99.90;;;2.14;81.69;99076.00;4995427;28;20042;-80
2020/12/11 03:33:28;;;;;;;35.03;19.17;;;1.60;99.90;;;2.22;81.37;99088.03;4994908;28;20076;-81
2020/12/11 03:35:54;;;;;;;37.97;20.27;;;1.60;99.90;;;2.18;81.66;99087.94;4995365;28;20034;-81
2020/12/11 03:38:21;;;;;;;38.47;20.45;;;1.60;99.90;;;2.10;81.92;99091.56;5013245;28;20034;-80
2020/12/11 03:40:47;;;;;;;32.22;17.73;;;1.50;99.90;;;2.19;81.41;99102.50;5011180;28;20038;-81
2020/12/11 03:43:13;;;;;;;37.15;20.20;;;1.50;99.90;;;2.02;81.80;99095.22;4999337;28;20037;-83
2020/12/11 03:45:41;;;;;;;35.05;18.63;;;1.40;99.90;;;1.98;82.25;99102.56;4995201;28;20088;-81
2020/12/11 03:48:07;;;;;;;32.08;19.10;;;1.40;99.90;;;1.96;82.46;99104.81;4994725;28;20038;-82
2020/12/11 03:50:33;;;;;;;29.73;17.58;;;1.40;99.90;;;2.00;82.50;99103.00;5012478;28;20441;-80
2020/12/11 03:52:59;;;;;;;34.80;19.33;;;1.30;99.90;;;1.94;82.54;99113.44;5012655;28;20054;-79
2020/12/11 03:55:25;;;;;;;30.98;17.45;;;1.30;99.90;;;1.92;82.52;99125.94;4995127;28;20061;-82
2020/12/11 03:57:52;;;;;;;35.30;18.60;;;1.30;99.90;;;1.83;82.74;99134.25;5012914;28;20041;-80
2020/12/11 04:00:19;;;;;;;31.33;18.08;;;1.30;99.90;;;1.89;82.93;99134.88;5012944;28;20457;-82
2020/12/11 04:02:45;;;;;;;32.03;17.17;;;1.30;99.90;;;1.91;82.85;99127.06;4995181;28;20453;-82
2020/12/11 04:05:11;;;;;;;32.35;17.30;;;1.30;99.90;;;1.87;82.96;99129.69;5012665;28;20042;-83
2020/12/11 04:07:36;;;;;;;29.92;16.30;;;1.30;99.90;;;1.95;82.47;99134.31;5012621;28;20041;-80
2020/12/11 04:10:03;;;;;;;30.48;17.02;;;1.30;99.90;;;1.84;82.51;99132.31;5012547;28;20022;-81
2020/12/11 04:12:29;;;;;;;31.05;16.95;;;1.20;99.90;;;1.77;82.90;99126.53;5012520;28;20113;-80
2020/12/11 04:14:55;;;;;;;27.25;16.40;;;1.20;99.90;;;1.73;83.38;99115.41;5013048;28;20110;-82
2020/12/11 04:17:21;;;;;;;30.02;18.10;;;1.20;99.90;;;1.74;83.13;99107.94;5013028;28;20038;-80
2020/12/11 04:19:47;;;;;;;32.22;17.20;;;1.20;99.90;;;1.72;83.32;99094.53;4995472;28;20045;-82
2020/12/11 04:22:13;;;;;;;35.67;19.25;;;1.20;99.90;;;1.82;82.88;99085.06;4995875;28;20029;-80
2020/12/11 04:24:39;;;;;;;32.58;18.25;;;1.20;99.90;;;1.82;83.14;99079.56;5013488;28;20034;-85
2020/12/11 04:27:05;;;;;;;33.35;18.17;;;1.30;99.90;;;1.87;82.47;99076.56;5013799;28;20093;-85
2020/12/11 04:29:31;;;;;;;33.67;17.58;;;1.20;99.90;;;1.90;82.61;99076.72;4996570;28;20030;-84
2020/12/11 04:31:59;;;;;;;30.38;17.90;;;1.30;99.90;;;1.89;82.33;99060.53;4995687;28;20084;-81
2020/12/11 04:34:26;;;;;;;28.83;16.33;;;1.30;99.90;;;1.98;82.06;99069.50;5010770;28;20077;-83
2020/12/11 04:36:56;;;;;;;31.10;16.15;;;1.40;99.90;;;2.08;82.00;99063.59;5012843;28;20113;-82
2020/12/11 04:39:23;;;;;;;30.73;16.10;;;1.50;99.90;;;1.99;82.62;99055.38;4995509;28;20118;-81
2020/12/11 04:41:52;;;;;;;29.85;16.80;;;1.50;99.90;;;2.04;81.62;99055.19;4995611;28;20029;-82
2020/12/11 04:44:20;;;;;;;29.98;16.27;;;1.50;99.90;;;2.07;81.58;99045.44;4996916;28;20042;-80
2020/12/11 04:46:46;;;;;;;24.90;14.85;;;1.50;99.90;;;2.13;81.43;99041.31;4999552;28;20045;-82
2020/12/11 04:49:13;;;;;;;27.05;15.27;;;1.50;99.90;;;2.10;81.44;99031.00;4999622;28;20026;-81
2020/12/11 04:51:50;;;;;;;27.10;15.65;;;1.50;99.90;;;2.09;81.36;99010.09;5016918;28;20041;-80
2020/12/11 04:54:22;;;;;;;23.35;13.63;;;1.60;99.90;;;2.24;80.49;99005.88;4999366;28;20104;-80
2020/12/11 04:56:51;;;;;;;28.30;15.13;;;1.70;99.90;;;2.33;80.09;99007.38;5015797;28;20048;-82
2020/12/11 04:59:19;;;;;;;26.70;14.77;;;1.80;99.90;;;2.26;80.12;98998.88;4999373;28;20076;-84
2020/12/11 05:01:45;;;;;;;24.08;14.73;;;1.70;99.90;;;2.23;80.25;99002.31;5016849;28;20018;-82
2020/12/11 05:04:11;;;;;;;25.13;14.77;;;1.80;99.90;;;2.34;80.19;98986.16;4999222;28;20032;-81
2020/12/11 05:06:37;;;;;;;25.23;14.95;;;1.80;99.90;;;2.33;79.98;98985.34;5016489;28;20077;-82
2020/12/11 05:09:20;;;;;;;25.30;15.10;;;1.90;99.90;;;2.35;79.73;98973.97;5016865;28;20040;-80
2020/12/11 05:11:48;;;;;;;25.95;14.05;;;1.90;99.90;;;2.31;79.57;98960.06;4998985;28;20458;-81
2020/12/11 05:14:34;;;;;;;22.58;14.13;;;1.90;99.90;;;2.45;79.83;98965.25;5015445;28;20026;-81
2020/12/11 05:17:07;;;;;;;22.33;13.82;;;2.00;99.90;;;2.44;79.27;98947.91;4998926;28;20036;-79
2020/12/11 05:19:53;;;;;;;26.35;15.38;;;2.00;99.90;;;2.61;78.96;98947.66;4998759;28;20037;-82
2020/12/11 05:22:21;;;;;;;25.63;14.57;;;2.00;99.90;;;2.50;78.96;98941.03;4998539;28;20025;-81
2020/12/11 05:24:55;;;;;;;23.75;13.95;;;2.00;99.90;;;2.66;78.67;98943.88;4998669;28;20030;-82
2020/12/11 05:28:00;;;;;;;22.25;13.88;;;2.10;99.90;;;2.61;78.06;98949.63;4998849;28;20030;-81
2020/12/11 05:30:26;;;;;;;23.70;14.18;;;2.10;99.90;;;2.65;78.24;98945.03;4954753;29;20124;-83
2020/12/11 05:32:58;;;;;;;22.77;13.45;;;2.10;99.90;;;2.76;77.68;98950.88;4988008;28;20038;-79
2020/12/11 05:35:31;;;;;;;24.52;14.25;;;2.10;99.90;;;2.63;78.20;98961.91;4998424;28;20040;-82
2020/12/11 05:38:06;;;;;;;23.00;13.82;;;2.00;99.90;;;2.71;77.75;98956.59;4998535;28;20029;-80
2020/12/11 05:40:37;;;;;;;24.58;14.50;;;2.00;99.90;;;2.63;78.09;98947.34;4997885;28;20106;-81
2020/12/11 05:43:20;;;;;;;23.58;13.73;;;2.10;99.90;;;2.73;77.72;98929.53;5016167;28;20034;-80
2020/12/11 05:45:59;;;;;;;22.35;13.90;;;2.10;99.90;;;2.80;77.99;98925.00;4998079;28;20311;-80
2020/12/11 05:48:45;;;;;;;19.15;12.68;;;2.10;99.90;;;2.62;77.66;98910.69;4998106;28;20049;-80
2020/12/11 05:51:20;;;;;;;20.45;13.43;;;2.10;99.90;;;2.69;77.80;98921.13;4997924;28;20029;-82
2020/12/11 05:53:46;;;;;;;23.33;13.25;;;2.20;99.90;;;2.74;77.33;98917.31;5016193;28;20057;-80
2020/12/11 05:56:13;;;;;;;23.73;13.20;;;2.10;99.90;;;2.69;77.24;98928.59;4997998;28;20033;-81
2020/12/11 05:58:43;;;;;;;22.23;13.30;;;2.10;99.90;;;2.59;77.79;98914.16;4998288;28;20053;-80
2020/12/11 06:01:18;;;;;;;22.05;13.40;;;2.10;99.90;;;2.60;77.72;98901.97;4998187;28;20125;-79
2020/12/11 06:03:46;;;;;;;21.15;12.73;;;2.00;99.90;;;2.49;78.15;98900.84;5015733;28;20087;-82
2020/12/11 06:06:16;;;;;;;23.08;14.13;;;2.00;99.90;;;2.46;78.27;98892.47;4998463;28;20030;-82
2020/12/11 06:08:45;;;;;;;19.38;12.07;;;1.90;99.90;;;2.44;78.14;98903.03;5015496;28;20036;-82
2020/12/11 06:11:49;;;;;;;20.30;13.05;;;1.90;99.90;;;2.40;78.33;98902.13;4998587;28;20076;-80
2020/12/11 06:14:38;;;;;;;21.05;13.38;;;1.80;99.90;;;2.33;78.82;98891.69;5016464;28;20049;-81
2020/12/11 06:17:08;;;;;;;21.58;12.75;;;1.80;99.90;;;2.27;79.24;98889.50;4999477;28;20041;-81
2020/12/11 06:19:39;;;;;;;23.02;13.25;;;1.80;99.90;;;2.33;79.12;98880.66;4997991;28;20056;-81
2020/12/11 06:22:07;;;;;;;22.08;12.32;;;1.80;99.90;;;2.39;78.59;98854.47;5015041;28;20022;-80
2020/12/11 06:24:35;;;;;;;19.88;12.85;;;1.90;99.90;;;2.43;78.37;98871.94;5013768;28;20033;-82
2020/12/11 06:27:05;;;;;;;21.55;13.43;;;2.00;99.90;;;2.47;78.20;98850.00;5016931;28;20021;-84
2020/12/11 06:29:39;;;;;;;23.40;14.55;;;2.00;99.90;;;2.53;78.16;98851.34;4997593;28;20481;-84
2020/12/11 06:32:10;;;;;;;20.85;12.77;;;1.90;99.90;;;2.39;78.51;98839.91;5014915;28;20116;-85
2020/12/11 06:34:40;;;;;;;24.00;14.13;;;2.00;99.90;;;2.41;78.49;98837.63;4998174;28;20058;-83
2020/12/11 06:37:07;;;;;;;19.50;12.90;;;2.00;99.90;;;2.46;78.27;98823.59;5015398;28;20092;-83
2020/12/11 06:39:48;;;;;;;20.13;13.23;;;2.10;99.90;;;2.54;78.20;98826.19;4997987;28;20374;-84
2020/12/11 06:42:35;;;;;;;21.17;12.80;;;2.10;99.90;;;2.64;77.60;98817.44;4997628;28;20034;-86
2020/12/11 06:45:28;;;;;;;20.92;13.48;;;2.20;99.90;;;2.71;77.87;98814.09;4997897;28;20029;-85
2020/12/11 06:48:00;;;;;;;23.40;14.43;;;2.20;99.90;;;2.82;77.96;98812.44;5014795;28;20029;-85
2020/12/11 06:50:33;;;;;;;23.63;14.45;;;2.20;99.90;;;2.78;78.08;98805.22;4998016;28;20114;-85
2020/12/11 06:53:00;;;;;;;22.20;12.70;;;2.20;99.90;;;2.77;77.63;98807.16;4998314;28;20053;-85
2020/12/11 06:55:50;;;;;;;22.40;13.57;;;2.20;99.90;;;2.91;77.30;98791.03;5013533;28;20549;-84
2020/12/11 06:58:20;;;;;;;23.52;13.05;;;2.20;99.90;;;2.91;77.26;98802.06;5014373;28;20030;-85
2020/12/11 07:00:54;;;;;;;21.58;12.77;;;2.20;99.90;;;2.96;76.56;98788.00;4997503;28;20053;-85
2020/12/11 07:03:30;;;;;;;24.25;13.77;;;2.20;99.90;;;2.99;77.07;98781.78;4996722;28;20030;-85
2020/12/11 07:06:08;;;;;;;22.63;12.88;;;2.30;99.90;;;2.93;76.61;98787.91;5013627;28;20037;-84
2020/12/11 07:08:36;;;;;;;23.63;13.65;;;2.30;99.90;;;2.97;76.87;98783.28;5013263;28;20022;-84
2020/12/11 07:11:08;;;;;;;18.58;12.43;;;2.30;99.90;;;3.03;76.70;98776.38;4997081;28;20496;-85
2020/12/11 07:13:36;;;;;;;20.33;12.68;;;2.30;99.90;;;2.95;76.75;98780.91;5010568;28;20021;-86
2020/12/11 07:16:04;;;;;;;23.42;12.48;;;2.30;99.90;;;2.97;76.49;98766.75;4997737;28;20056;-85
2020/12/11 07:18:30;;;;;;;20.83;12.18;;;2.40;99.90;;;3.05;76.46;98776.81;5015091;28;20040;-84
2020/12/11 07:20:59;;;;;;;20.67;12.85;;;2.40;99.90;;;3.08;76.80;98765.88;4997890;28;20088;-84
2020/12/11 07:23:26;;;;;;;19.38;12.05;;;2.40;99.90;;;3.06;76.79;98754.41;4997628;28;20080;-83
2020/12/11 07:25:55;;;;;;;19.58;11.85;;;2.40;99.90;;;3.10;76.51;98754.50;5007578;28;20094;-86
2020/12/11 07:28:22;;;;;;;20.23;11.85;;;2.40;99.90;;;2.97;76.97;98741.94;4999894;28;20041;-85
2020/12/11 07:30:48;;;;;;;21.38;12.98;;;2.40;99.90;;;3.05;76.92;98749.25;5014097;28;20563;-86
2020/12/11 07:33:15;;;;;;;20.63;12.68;;;2.40;99.90;;;3.04;76.78;98739.38;5014443;28;20022;-86
2020/12/11 07:35:50;;;;;;;20.75;13.32;;;2.40;99.90;;;3.12;77.29;98743.91;5013737;28;20037;-83
2020/12/11 07:38:26;;;;;;;19.00;11.85;;;2.40;99.90;;;3.07;77.22;98731.19;4997395;28;20099;-86
2020/12/11 07:40:55;;;;;;;20.17;13.23;;;2.40;99.90;;;2.93;77.56;98724.47;5012037;28;20031;-84
2020/12/11 07:43:22;;;;;;;21.98;13.13;;;2.50;99.90;;;3.14;77.56;98727.81;4977783;28;20026;-84
2020/12/11 07:45:49;;;;;;;19.13;12.48;;;2.50;99.90;;;3.15;77.54;98704.56;4977961;28;20093;-84
2020/12/11 07:48:15;;;;;;;19.02;11.82;;;2.50;99.90;;;3.23;77.61;98706.38;4977523;28;20034;-84
2020/12/11 07:50:42;;;;;;;18.35;12.45;;;2.60;99.90;;;3.21;77.55;98702.38;4993889;28;20521;-84
2020/12/11 07:53:10;;;;;;;23.17;12.75;;;2.50;99.90;;;3.14;77.68;98701.03;4995438;28;20026;-84
2020/12/11 07:55:37;;;;;;;21.40;12.60;;;2.60;99.90;;;3.15;77.26;98697.09;4993808;28;20037;-84
2020/12/11 07:58:04;;;;;;;19.40;12.18;;;2.60;99.90;;;3.32;76.82;98701.47;4977075;28;20030;-85
2020/12/11 08:00:35;;;;;;;21.52;13.63;;;2.60;99.90;;;3.21;76.77;98702.38;4977315;28;20034;-83
2020/12/11 08:03:05;;;;;;;20.90;12.85;;;2.60;99.90;;;3.26;77.04;98697.38;4977701;28;20126;-85
2020/12/11 08:05:37;;;;;;;20.40;12.20;;;2.70;99.90;;;3.25;77.26;98697.72;4998686;28;20022;-85
2020/12/11 08:08:06;;;;;;;22.92;12.73;;;2.70;99.90;;;3.39;76.87;98689.78;4996211;28;20030;-86
2020/12/11 08:10:43;;;;;;;21.90;12.85;;;2.70;99.90;;;3.51;76.88;98684.16;4996611;28;20394;-86
2020/12/11 08:13:17;;;;;;;21.33;12.82;;;2.90;99.90;;;3.82;75.92;98686.06;4996445;28;20026;-86
2020/12/11 08:15:45;;;;;;;18.60;11.65;;;3.10;99.90;;;3.95;74.87;98682.03;4996343;28;20030;-83
2020/12/11 08:18:22;;;;;;;19.42;11.80;;;3.30;99.90;;;3.95;74.73;98688.31;4998144;28;20033;-86
2020/12/11 08:21:00;;;;;;;18.08;11.35;;;3.40;99.90;;;3.81;75.13;98688.03;5017778;28;20105;-81
2020/12/11 08:23:44;;;;;;;16.52;10.30;;;3.40;99.90;;;3.94;74.40;98696.97;4990906;28;20551;-87
2020/12/11 08:26:19;;;;;;;16.00;10.38;;;3.50;99.90;;;4.02;74.26;98694.00;4998974;28;20085;-86
2020/12/11 08:28:50;;;;;;;15.05;9.95;;;3.60;99.90;;;4.20;73.73;98699.91;4993131;28;20121;-83
2020/12/11 08:31:28;;;;;;;15.25;10.52;;;3.60;99.90;;;4.38;73.18;98703.84;5032453;22;20470;-82
2020/12/11 08:34:12;;;;;;;14.52;9.55;;;3.80;99.90;;;4.32;73.49;98716.34;5001512;28;20042;-82
2020/12/11 08:36:47;;;;;;;16.23;10.38;;;3.80;99.90;;;4.34;73.00;98715.97;4985241;28;20030;-81
2020/12/11 08:39:25;;;;;;;21.10;10.50;;;3.70;99.90;;;4.09;74.18;98716.25;4984695;28;20478;-82
2020/12/11 08:52:51;;;;;;;15.05;9.85;;;3.50;99.90;;;4.08;74.82;98722.13;5001976;28;20023;-80
2020/12/11 08:55:17;;;;;;;16.85;10.95;;;3.50;99.90;;;4.08;75.46;98725.69;4984465;28;20034;-83
2020/12/11 08:57:44;;;;;;;15.77;9.77;;;3.50;99.90;;;3.98;75.07;98733.78;4984396;28;20065;-83
2020/12/11 09:00:13;;;;;;;16.33;9.70;;;3.60;99.90;;;4.07;73.99;98726.88;4984196;28;20375;-81
2020/12/11 09:02:39;;;;;;;20.98;10.23;;;3.60;99.90;;;4.08;74.28;98722.94;4984375;28;20030;-83
2020/12/11 09:05:05;;;;;;;16.45;9.90;;;3.60;99.90;;;4.15;74.09;98720.34;4983701;28;20034;-84
2020/12/11 09:07:31;;;;;;;16.25;10.25;;;3.70;99.90;;;4.16;74.48;98716.41;4986693;28;20033;-82
2020/12/11 09:09:58;;;;;;;14.57;9.82;;;3.80;99.90;;;4.25;74.19;98713.44;4989183;28;20022;-84
2020/12/11 09:12:24;;;;;;;13.75;8.60;;;3.70;99.90;;;4.12;74.85;98715.53;4990969;28;20023;-81
2020/12/11 09:14:50;;;;;;;14.55;9.73;;;3.80;99.90;;;4.34;74.02;98702.16;4986534;28;20552;-82
2020/12/11 09:17:21;;;;;;;14.60;10.13;;;3.80;99.90;;;4.36;74.30;98695.13;4998870;28;20064;-81
2020/12/11 09:19:47;;;;;;;13.52;9.50;;;3.90;99.90;;;4.44;73.74;98699.59;4997785;28;20038;-82
2020/12/11 09:22:13;;;;;;;15.85;9.68;;;3.90;99.90;;;4.42;73.34;98688.13;4981256;28;20034;-81
2020/12/11 09:24:41;;;;;;;14.23;9.90;;;4.00;99.90;;;4.56;73.47;98687.63;4980517;28;20509;-83
2020/12/11 09:27:11;;;;;;;14.93;9.13;;;4.00;99.90;;;4.31;74.11;98689.88;4981652;28;20074;-84
2020/12/11 09:29:40;;;;;;;14.93;9.07;;;4.00;99.90;;;4.28;74.26;98695.31;4996902;28;20033;-82
2020/12/11 09:32:07;;;;;;;15.43;9.50;;;3.90;99.90;;;4.43;73.60;98683.41;4999803;28;20026;-81
2020/12/11 09:34:34;;;;;;;14.20;8.88;;;4.00;99.90;;;4.55;73.21;98691.53;4981165;28;20026;-79
2020/12/11 09:37:03;;;;;;;16.00;9.57;;;4.10;99.90;;;4.55;73.12;98686.00;4982037;28;20046;-84
2020/12/11 09:39:30;;;;;;;15.10;9.35;;;4.10;99.90;;;4.73;72.77;98685.16;4999980;28;20026;-82
2020/12/11 09:42:12;;;;;;;14.27;8.77;;;4.20;99.90;;;4.85;72.42;98673.13;4981718;28;20030;-83
2020/12/11 09:44:56;;;;;;;14.93;9.45;;;4.20;99.90;;;4.84;72.86;98676.28;5000796;28;20018;-85
2020/12/11 09:54:50;;;;;;;15.02;9.13;;;4.20;99.90;;;4.90;72.30;98661.78;5001460;28;20482;-83
2020/12/11 09:57:15;;;;;;;13.32;8.90;;;4.30;99.90;;;4.98;73.00;98657.16;4987789;28;20050;-82
2020/12/11 09:59:49;;;;;;;13.93;8.48;;;4.20;99.90;;;4.84;73.14;98654.16;5006191;28;20073;-81
2020/12/11 10:04:42;;;;;;;14.65;8.68;;;4.30;99.90;;;4.73;74.05;98652.00;5001454;28;20029;-82
2020/12/11 10:07:08;;;;;;;12.88;7.70;;;4.30;99.90;;;4.86;73.65;98637.97;4982497;28;20034;-83
2020/12/11 10:09:34;;;;;;;13.18;8.80;;;4.30;99.90;;;4.82;73.74;98640.69;4983070;28;20133;-81
2020/12/11 10:12:02;;;;;;;13.00;7.78;;;4.40;99.90;;;4.92;73.88;98622.66;5001736;28;20109;-82
2020/12/11 10:14:41;;;;;;;11.23;8.32;;;4.40;99.90;;;4.96;73.74;98627.09;4982737;28;20474;-83
2020/12/11 10:17:09;;;;;;;12.27;7.75;;;4.50;99.90;;;5.02;74.29;98627.59;4999743;28;20037;-82
2020/12/11 10:19:35;;;;;;;11.45;7.72;;;4.50;99.90;;;4.93;74.15;98624.28;5001055;28;20050;-82
2020/12/11 10:22:03;;;;;;;12.32;8.48;;;4.50;99.90;;;5.11;74.39;98615.09;4983123;28;20075;-82
2020/12/11 10:24:29;;;;;;;15.50;8.43;;;4.50;99.90;;;5.11;74.01;98601.25;4983377;28;20030;-80
2020/12/11 10:26:56;;;;;;;10.90;7.10;;;4.50;99.90;;;5.08;74.28;98598.44;5005466;28;20031;-81
2020/12/11 10:29:22;;;;;;;11.52;7.90;;;4.60;99.90;;;5.16;73.97;98597.38;5001521;28;20058;-78
2020/12/11 10:31:48;;;;;;;10.45;7.55;;;4.70;99.90;;;5.25;73.20;98595.16;4982977;28;20038;-78
2020/12/11 10:34:17;;;;;;;13.52;7.05;;;4.70;99.90;;;5.42;73.27;98594.63;4983249;28;20031;-80
2020/12/11 10:36:44;;;;;;;14.15;7.13;;;4.80;99.90;;;5.44;73.47;98588.69;4983801;28;20206;-79
2020/12/11 10:39:11;;;;;;;10.07;6.93;;;4.80;99.90;;;5.54;73.08;98588.06;4985875;28;20040;-79
2020/12/11 10:41:38;;;;;;;11.25;7.45;;;4.90;99.90;;;5.53;73.18;98584.47;4984550;28;20409;-79
2020/12/11 10:44:06;;;;;;;12.20;7.03;;;5.00;99.90;;;5.70;73.39;98588.66;5003095;28;20581;-80
2020/12/11 10:46:33;;;;;;;11.02;7.43;;;5.10;99.90;;;5.82;73.23;98585.66;5003242;28;20023;-80
2020/12/11 10:48:59;;;;;;;11.23;7.07;;;5.20;99.90;;;5.97;72.55;98589.47;5004069;28;20062;-78